Time;durP1;ratioP1;P1;durP2;ratioP2;P2;SDS_P1;SDS_P2;PMS_P1;PMS_P2;Temp;Humidity;BMP_temperature;BMP_pressure;BME280_temperature;BME280_humidity;BME280_pressure;Samples;Min_cycle;Max_cycle;Signal;HPM_P1;HPM_P2
2021/10/27 00:00:04;;;;;;;61.93;25.33;;;7.30;99.90;;;;;;2700968;28;20696;-68
2021/10/27 00:01:23;;;;;;;55.45;25.35;;;7.30;99.90;;;;;;2700914;28;20216;-67
2021/10/27 00:02:40;;;;;;;44.00;24.70;;;7.30;99.90;;;;;;2698841;28;20253;-67
2021/10/27 00:03:59;;;;;;;33.43;23.90;;;7.30;99.90;;;;;;2693745;28;20258;-68
2021/10/27 00:05:17;;;;;;;48.33;22.60;;;7.20;99.90;;;;;;2700926;28;20204;-67
2021/10/27 00:06:37;;;;;;;49.58;23.13;;;7.20;99.90;;;;;;2701479;28;20261;-68
2021/10/27 00:07:56;;;;;;;66.97;25.25;;;7.30;99.90;;;;;;2701209;28;20219;-68
2021/10/27 00:09:15;;;;;;;86.30;27.45;;;7.20;99.90;;;;;;2700568;28;20216;-68
2021/10/27 00:10:34;;;;;;;86.00;27.40;;;7.20;99.90;;;;;;2699856;28;20250;-68
2021/10/27 00:11:53;;;;;;;62.38;27.65;;;7.20;99.90;;;;;;2707166;28;20215;-67
2021/10/27 00:13:11;;;;;;;52.05;28.83;;;7.20;99.90;;;;;;2712097;28;20205;-67
2021/10/27 00:14:30;;;;;;;67.65;27.83;;;7.20;99.90;;;;;;2711292;28;20282;-67
2021/10/27 00:15:48;;;;;;;53.03;24.60;;;7.20;99.90;;;;;;2711618;28;20207;-67
2021/10/27 00:17:07;;;;;;;71.70;26.52;;;7.20;99.90;;;;;;2711903;28;20263;-67
2021/10/27 00:18:26;;;;;;;87.63;25.90;;;7.20;99.90;;;;;;2711805;28;20199;-67
2021/10/27 00:19:44;;;;;;;60.78;23.80;;;7.20;99.90;;;;;;2711892;28;20199;-67
2021/10/27 00:21:02;;;;;;;50.75;23.15;;;7.20;99.90;;;;;;2711652;28;20199;-67
2021/10/27 00:22:20;;;;;;;38.70;22.57;;;7.20;99.90;;;;;;2711881;28;20300;-67
2021/10/27 00:23:38;;;;;;;35.97;23.50;;;7.20;99.90;;;;;;2711647;28;20252;-67
2021/10/27 00:24:56;;;;;;;26.20;22.80;;;7.20;99.90;;;;;;2711861;28;20680;-67
2021/10/27 00:26:14;;;;;;;34.22;23.00;;;7.20;99.90;;;;;;2703539;28;20207;-66
2021/10/27 00:27:32;;;;;;;32.53;24.30;;;7.20;99.90;;;;;;2701030;28;20204;-67
2021/10/27 00:28:51;;;;;;;43.85;23.50;;;7.20;99.90;;;;;;2700285;28;20727;-67
2021/10/27 00:30:09;;;;;;;35.38;23.80;;;7.10;99.90;;;;;;2700240;28;20211;-67
2021/10/27 00:31:27;;;;;;;33.70;20.77;;;7.00;99.90;;;;;;2700769;28;20227;-67
2021/10/27 00:32:46;;;;;;;27.92;19.95;;;7.00;99.90;;;;;;2700372;28;20503;-67
2021/10/27 00:34:04;;;;;;;27.63;21.60;;;6.90;99.90;;;;;;2700185;28;20204;-67
2021/10/27 00:35:23;;;;;;;25.95;20.20;;;6.90;99.90;;;;;;2700585;28;20200;-67
2021/10/27 00:36:41;;;;;;;51.85;23.27;;;6.80;99.90;;;;;;2701148;28;20249;-67
2021/10/27 00:38:00;;;;;;;26.15;19.58;;;6.80;99.90;;;;;;2700433;28;20204;-67
2021/10/27 00:39:18;;;;;;;47.42;20.52;;;6.90;99.90;;;;;;2699961;28;20208;-67
2021/10/27 00:40:35;;;;;;;36.70;19.02;;;6.90;99.90;;;;;;2699498;28;20204;-67
2021/10/27 00:41:54;;;;;;;77.93;21.40;;;6.90;99.90;;;;;;2700980;28;20305;-66
2021/10/27 00:43:11;;;;;;;96.65;25.48;;;6.90;99.90;;;;;;2700811;28;20215;-67
2021/10/27 00:44:30;;;;;;;101.47;24.47;;;6.80;99.90;;;;;;2699283;28;20207;-67
2021/10/27 00:45:48;;;;;;;168.48;28.42;;;6.80;99.90;;;;;;2700544;28;20281;-67
2021/10/27 00:47:07;;;;;;;124.18;26.23;;;6.80;99.90;;;;;;2701021;28;20687;-67
2021/10/27 00:48:24;;;;;;;71.75;22.75;;;6.80;99.90;;;;;;2700725;28;20639;-66
2021/10/27 00:49:43;;;;;;;101.23;28.20;;;6.70;99.90;;;;;;2700604;28;20211;-66
2021/10/27 00:51:01;;;;;;;91.35;24.90;;;6.90;99.90;;;;;;2701834;28;20196;-67
2021/10/27 00:52:18;;;;;;;90.82;22.65;;;6.90;99.90;;;;;;2702878;28;20265;-66
2021/10/27 00:53:38;;;;;;;83.17;21.87;;;6.90;99.90;;;;;;2702861;28;20293;-67
2021/10/27 00:54:57;;;;;;;98.75;24.40;;;6.90;99.90;;;;;;2700821;28;20196;-66
2021/10/27 00:56:16;;;;;;;77.18;23.80;;;6.80;99.90;;;;;;2701847;28;20282;-67
2021/10/27 00:57:33;;;;;;;72.63;21.65;;;6.80;99.90;;;;;;2702069;28;20270;-67
2021/10/27 00:58:52;;;;;;;58.80;22.57;;;6.70;99.90;;;;;;2701821;28;20256;-67
2021/10/27 01:00:09;;;;;;;92.47;24.80;;;6.80;99.90;;;;;;2701780;28;20204;-67
2021/10/27 01:01:28;;;;;;;40.07;20.27;;;6.80;99.90;;;;;;2700993;28;20286;-66
2021/10/27 01:02:46;;;;;;;36.47;20.10;;;6.80;99.90;;;;;;2694721;28;20232;-66
2021/10/27 01:04:04;;;;;;;70.70;22.05;;;6.80;99.90;;;;;;2698351;28;20203;-67
2021/10/27 01:05:23;;;;;;;67.93;24.40;;;6.90;99.90;;;;;;2702346;28;20200;-67
2021/10/27 01:06:41;;;;;;;48.90;21.52;;;6.90;99.90;;;;;;2702788;28;20336;-67
2021/10/27 01:07:59;;;;;;;63.10;22.92;;;6.90;99.90;;;;;;2702674;28;20307;-67
2021/10/27 01:09:17;;;;;;;180.68;32.20;;;6.90;99.90;;;;;;2702470;28;20254;-66
2021/10/27 01:10:36;;;;;;;201.10;31.00;;;6.90;99.90;;;;;;2701022;28;20236;-66
2021/10/27 01:11:53;;;;;;;85.60;25.13;;;6.90;99.90;;;;;;2701766;28;20569;-66
2021/10/27 01:13:12;;;;;;;80.23;24.67;;;6.90;99.90;;;;;;2702481;28;20287;-67
2021/10/27 01:14:29;;;;;;;62.03;23.35;;;6.90;99.90;;;;;;2701748;28;20204;-66
2021/10/27 01:15:48;;;;;;;150.47;29.33;;;6.80;99.90;;;;;;2702407;28;20235;-67
2021/10/27 01:17:05;;;;;;;33.20;21.17;;;6.80;99.90;;;;;;2702133;28;20277;-67
2021/10/27 01:18:23;;;;;;;44.50;21.50;;;6.80;99.90;;;;;;2702622;28;20311;-67
2021/10/27 01:19:41;;;;;;;60.70;22.70;;;6.90;99.90;;;;;;2701818;28;20197;-67
2021/10/27 01:20:59;;;;;;;89.37;25.13;;;6.90;99.90;;;;;;2702268;28;20378;-67
2021/10/27 01:22:17;;;;;;;86.05;24.52;;;6.90;99.90;;;;;;2702265;28;20236;-67
2021/10/27 01:23:35;;;;;;;358.30;40.27;;;6.90;99.90;;;;;;2702301;28;20738;-66
2021/10/27 01:24:54;;;;;;;388.65;43.45;;;6.80;99.90;;;;;;2701809;28;20196;-67
2021/10/27 01:26:13;;;;;;;249.45;33.13;;;6.80;99.90;;;;;;2702411;28;20197;-66
2021/10/27 01:27:31;;;;;;;213.23;33.47;;;6.70;99.90;;;;;;2702515;28;20207;-66
2021/10/27 01:28:49;;;;;;;163.30;26.95;;;6.70;99.90;;;;;;2702107;28;20215;-67
2021/10/27 01:30:08;;;;;;;145.70;27.42;;;6.60;99.90;;;;;;2701901;28;20205;-67
2021/10/27 01:31:25;;;;;;;62.35;20.33;;;6.60;99.90;;;;;;2702128;28;20653;-67
2021/10/27 01:32:44;;;;;;;71.93;21.47;;;6.60;99.90;;;;;;2701102;28;20300;-67
2021/10/27 01:34:02;;;;;;;44.03;21.05;;;6.60;99.90;;;;;;2700853;28;20656;-66
2021/10/27 01:35:21;;;;;;;35.75;17.50;;;6.60;99.90;;;;;;2690490;28;20719;-66
2021/10/27 01:36:38;;;;;;;81.05;22.25;;;6.60;99.90;;;;;;2690636;28;20216;-67
2021/10/27 01:37:56;;;;;;;60.60;20.33;;;6.70;99.90;;;;;;2693389;28;20295;-67
2021/10/27 01:39:14;;;;;;;79.90;21.60;;;6.70;99.90;;;;;;2701990;28;20254;-67
2021/10/27 01:40:33;;;;;;;100.13;23.03;;;6.70;99.90;;;;;;2702275;28;20680;-67
2021/10/27 01:41:50;;;;;;;83.28;23.00;;;6.60;99.90;;;;;;2702077;28;20204;-67
2021/10/27 01:43:08;;;;;;;57.60;21.50;;;6.50;99.90;;;;;;2702541;28;20203;-66
2021/10/27 01:44:26;;;;;;;70.93;21.10;;;6.50;99.90;;;;;;2701666;28;20214;-66
2021/10/27 01:45:45;;;;;;;48.73;20.63;;;6.40;99.90;;;;;;2702026;28;20740;-67
2021/10/27 01:47:02;;;;;;;44.10;21.20;;;6.30;99.90;;;;;;2702223;28;20661;-67
2021/10/27 01:48:20;;;;;;;45.57;20.80;;;6.30;99.90;;;;;;2702418;28;20334;-67
2021/10/27 01:49:38;;;;;;;46.95;19.55;;;6.20;99.90;;;;;;2702225;28;20204;-67
2021/10/27 01:50:56;;;;;;;52.00;21.47;;;6.20;99.90;;;;;;2702200;28;20863;-66
2021/10/27 01:52:15;;;;;;;49.30;19.38;;;6.20;99.90;;;;;;2702252;28;20211;-67
2021/10/27 01:53:33;;;;;;;63.88;20.80;;;6.20;99.90;;;;;;2701539;28;20192;-66
2021/10/27 01:54:51;;;;;;;49.10;19.73;;;6.20;99.90;;;;;;2700503;28;20246;-67
2021/10/27 01:56:09;;;;;;;45.50;19.90;;;6.20;99.90;;;;;;2701339;28;20495;-67
2021/10/27 01:57:28;;;;;;;45.92;21.05;;;6.10;99.90;;;;;;2701427;28;20204;-67
2021/10/27 01:58:45;;;;;;;46.80;21.38;;;6.10;99.90;;;;;;2702273;28;20200;-67
2021/10/27 02:00:04;;;;;;;47.50;20.43;;;6.10;99.90;;;;;;2702263;28;20414;-67
2021/10/27 02:01:21;;;;;;;65.20;20.60;;;6.10;99.90;;;;;;2701743;28;20200;-67
2021/10/27 02:02:40;;;;;;;42.83;20.73;;;6.20;99.90;;;;;;2701924;28;20325;-66
2021/10/27 02:03:58;;;;;;;62.60;22.30;;;6.20;99.90;;;;;;2701476;28;20200;-67
2021/10/27 02:05:16;;;;;;;51.03;21.13;;;6.10;99.90;;;;;;2702166;28;20238;-67
2021/10/27 02:06:34;;;;;;;43.45;21.13;;;6.10;99.90;;;;;;2702192;28;20200;-67
2021/10/27 02:07:52;;;;;;;54.00;21.43;;;6.10;99.90;;;;;;2697322;28;20278;-67
2021/10/27 02:09:10;;;;;;;48.17;21.55;;;6.10;99.90;;;;;;2701734;28;20555;-67
2021/10/27 02:10:28;;;;;;;70.03;22.80;;;6.00;99.90;;;;;;2701496;28;20278;-66
2021/10/27 02:11:47;;;;;;;73.43;24.65;;;6.10;99.90;;;;;;2701229;28;20192;-67
2021/10/27 02:13:05;;;;;;;67.93;23.80;;;6.10;99.90;;;;;;2700766;28;20249;-67
2021/10/27 02:14:24;;;;;;;79.82;24.92;;;6.10;99.90;;;;;;2700940;28;20743;-66
2021/10/27 02:15:42;;;;;;;88.45;22.33;;;6.10;99.90;;;;;;2701833;28;20602;-67
2021/10/27 02:17:00;;;;;;;65.15;21.85;;;6.10;99.90;;;;;;2702254;28;20219;-67
2021/10/27 02:18:18;;;;;;;73.67;24.40;;;6.10;99.90;;;;;;2701855;28;20766;-67
2021/10/27 02:19:37;;;;;;;62.70;22.00;;;6.20;99.90;;;;;;2702201;28;20198;-67
2021/10/27 02:20:54;;;;;;;84.07;23.95;;;6.30;99.90;;;;;;2702226;28;21033;-67
2021/10/27 02:22:13;;;;;;;82.33;21.23;;;6.30;99.90;;;;;;2701730;28;20224;-67
2021/10/27 02:23:30;;;;;;;80.85;23.20;;;6.20;99.90;;;;;;2701610;28;20216;-66
2021/10/27 02:24:49;;;;;;;40.83;21.27;;;6.10;99.90;;;;;;2700704;28;20208;-67
2021/10/27 02:26:06;;;;;;;69.28;22.88;;;6.10;99.90;;;;;;2701870;28;20701;-67
2021/10/27 02:27:25;;;;;;;48.53;21.17;;;6.10;99.90;;;;;;2701562;28;20235;-67
2021/10/27 02:28:42;;;;;;;45.28;20.02;;;6.10;99.90;;;;;;2701590;28;20243;-67
2021/10/27 02:30:01;;;;;;;39.80;21.07;;;6.10;99.90;;;;;;2701712;28;20845;-67
2021/10/27 02:31:18;;;;;;;47.35;22.15;;;6.10;99.90;;;;;;2702189;28;20200;-67
2021/10/27 02:32:37;;;;;;;51.07;22.47;;;6.10;99.90;;;;;;2701722;28;20765;-67
2021/10/27 02:33:54;;;;;;;70.22;22.67;;;6.00;99.90;;;;;;2700581;28;20208;-67
2021/10/27 02:35:13;;;;;;;80.37;22.73;;;6.00;99.90;;;;;;2700770;28;20224;-66
2021/10/27 02:36:31;;;;;;;73.85;23.75;;;6.00;99.90;;;;;;2701844;28;20192;-67
2021/10/27 02:37:50;;;;;;;36.97;21.30;;;6.00;99.90;;;;;;2701782;28;20273;-66
2021/10/27 02:39:10;;;;;;;40.97;21.33;;;5.90;99.90;;;;;;2701911;28;20250;-67
2021/10/27 02:40:28;;;;;;;51.25;21.85;;;5.90;99.90;;;;;;2701567;28;20204;-67
2021/10/27 02:41:46;;;;;;;50.35;22.90;;;5.90;99.90;;;;;;2701555;28;20238;-66
2021/10/27 02:43:04;;;;;;;49.03;22.75;;;5.90;99.90;;;;;;2701512;28;20231;-67
2021/10/27 02:44:22;;;;;;;33.73;21.03;;;5.90;99.90;;;;;;2701144;28;20719;-67
2021/10/27 02:45:40;;;;;;;56.97;22.35;;;5.80;99.90;;;;;;2701746;28;20192;-67
2021/10/27 02:46:58;;;;;;;49.30;24.40;;;5.80;99.90;;;;;;2701632;28;20296;-67
2021/10/27 02:48:17;;;;;;;40.47;21.55;;;5.80;99.90;;;;;;2701759;28;20196;-67
2021/10/27 02:49:35;;;;;;;35.55;24.70;;;5.80;99.90;;;;;;2701904;28;20544;-67
2021/10/27 02:50:54;;;;;;;28.45;21.25;;;5.80;99.90;;;;;;2700964;28;20196;-66
2021/10/27 02:52:12;;;;;;;25.80;22.45;;;5.80;99.90;;;;;;2700740;28;20208;-67
2021/10/27 02:53:30;;;;;;;33.97;23.70;;;5.70;99.90;;;;;;2700846;28;20736;-67
2021/10/27 02:54:48;;;;;;;23.87;21.37;;;5.70;99.90;;;;;;2700186;28;20287;-69
2021/10/27 02:56:06;;;;;;;27.23;22.25;;;5.80;99.90;;;;;;2701685;28;20257;-66
2021/10/27 02:57:24;;;;;;;30.60;19.77;;;5.90;99.90;;;;;;2701561;28;20324;-67
2021/10/27 02:58:42;;;;;;;24.48;20.17;;;5.80;99.90;;;;;;2701537;28;20208;-67
2021/10/27 03:00:00;;;;;;;30.37;23.10;;;5.80;99.90;;;;;;2701736;28;20243;-67
2021/10/27 03:01:19;;;;;;;24.60;22.05;;;5.80;99.90;;;;;;2701639;28;20489;-67
2021/10/27 03:02:37;;;;;;;25.90;22.90;;;5.70;99.90;;;;;;2701812;28;20228;-66
2021/10/27 03:03:55;;;;;;;31.00;24.20;;;5.80;99.90;;;;;;2700596;28;20569;-67
2021/10/27 03:05:14;;;;;;;25.10;21.42;;;5.90;99.90;;;;;;2700104;28;20192;-67
2021/10/27 03:06:31;;;;;;;27.48;24.00;;;6.00;99.90;;;;;;2700904;28;20208;-67
2021/10/27 03:07:50;;;;;;;28.20;23.60;;;6.00;99.90;;;;;;2700257;28;20200;-67
2021/10/27 03:09:07;;;;;;;59.10;25.50;;;6.00;99.90;;;;;;2700853;28;20196;-67
2021/10/27 03:10:26;;;;;;;106.27;28.07;;;6.00;99.90;;;;;;2700304;28;20212;-67
2021/10/27 03:11:45;;;;;;;36.00;22.05;;;5.90;99.90;;;;;;2701462;28;20235;-67
2021/10/27 03:13:02;;;;;;;49.50;23.65;;;5.80;99.90;;;;;;2700648;28;20736;-67
2021/10/27 03:14:20;;;;;;;54.97;22.50;;;5.80;99.90;;;;;;2693738;28;20277;-67
2021/10/27 03:15:39;;;;;;;27.25;18.85;;;5.70;99.90;;;;;;2690564;28;20200;-66
2021/10/27 03:16:57;;;;;;;21.13;17.83;;;5.60;99.90;;;;;;2699195;28;20204;-67
2021/10/27 03:18:15;;;;;;;24.45;17.73;;;5.70;99.90;;;;;;2701514;28;20253;-67
2021/10/27 03:19:33;;;;;;;50.50;20.37;;;5.70;99.90;;;;;;2700874;28;20245;-66
2021/10/27 03:20:52;;;;;;;62.72;21.45;;;5.70;99.90;;;;;;2701498;28;20204;-67
2021/10/27 03:22:09;;;;;;;58.97;21.48;;;5.60;99.90;;;;;;2701448;28;20209;-67
2021/10/27 03:23:28;;;;;;;81.40;24.13;;;5.50;99.90;;;;;;2701197;28;20281;-67
2021/10/27 03:24:47;;;;;;;83.10;26.27;;;5.50;99.90;;;;;;2700565;28;20243;-67
2021/10/27 03:26:05;;;;;;;130.00;26.98;;;5.40;99.90;;;;;;2701473;28;20639;-67
2021/10/27 03:27:23;;;;;;;174.18;29.98;;;5.40;99.90;;;;;;2701632;28;20258;-66
2021/10/27 03:28:42;;;;;;;134.77;27.10;;;5.40;99.90;;;;;;2701448;28;20309;-67
2021/10/27 03:30:01;;;;;;;94.38;26.35;;;5.30;99.90;;;;;;2701705;28;20211;-67
2021/10/27 03:31:18;;;;;;;103.55;28.13;;;5.30;99.90;;;;;;2701496;28;20231;-67
2021/10/27 03:32:37;;;;;;;70.97;24.93;;;5.30;99.90;;;;;;2704138;28;20207;-67
2021/10/27 03:33:57;;;;;;;51.42;23.92;;;5.30;99.90;;;;;;2700340;28;20204;-67
2021/10/27 03:35:15;;;;;;;32.90;21.83;;;5.30;99.90;;;;;;2701478;28;20203;-67
2021/10/27 03:36:34;;;;;;;41.42;22.23;;;5.40;99.90;;;;;;2700996;28;20291;-67
2021/10/27 03:37:51;;;;;;;43.17;23.75;;;5.40;99.90;;;;;;2700777;28;20240;-67
2021/10/27 03:39:10;;;;;;;79.80;26.40;;;5.40;99.90;;;;;;2700767;28;20200;-66
2021/10/27 03:40:28;;;;;;;30.50;22.55;;;5.30;99.90;;;;;;2700581;28;20258;-67
2021/10/27 03:41:47;;;;;;;30.10;24.15;;;5.30;99.90;;;;;;2698356;28;20209;-67
2021/10/27 03:43:06;;;;;;;36.35;27.33;;;5.20;99.90;;;;;;2709282;28;20223;-67
2021/10/27 03:44:23;;;;;;;42.33;27.67;;;5.20;99.90;;;;;;2701897;28;20672;-67
2021/10/27 03:45:42;;;;;;;34.57;25.77;;;5.10;99.90;;;;;;2700481;28;20211;-67
2021/10/27 03:47:00;;;;;;;37.45;25.73;;;5.20;99.90;;;;;;2700963;28;20257;-67
2021/10/27 03:48:18;;;;;;;35.80;25.50;;;5.20;99.90;;;;;;2700769;28;20196;-67
2021/10/27 03:49:37;;;;;;;26.92;22.27;;;5.20;99.90;;;;;;2700942;28;20304;-67
2021/10/27 03:50:55;;;;;;;28.67;22.67;;;5.10;99.90;;;;;;2700651;28;20283;-67
2021/10/27 03:52:14;;;;;;;20.40;18.30;;;5.10;99.90;;;;;;2701272;28;20202;-67
2021/10/27 03:53:33;;;;;;;19.88;17.13;;;5.10;99.90;;;;;;2701029;28;20223;-67
2021/10/27 03:54:51;;;;;;;21.13;19.02;;;5.10;99.90;;;;;;2699661;28;20266;-67
2021/10/27 03:56:10;;;;;;;20.25;18.02;;;5.10;99.90;;;;;;2701031;28;20253;-67
2021/10/27 03:57:27;;;;;;;20.40;18.17;;;5.10;99.90;;;;;;2701102;28;20279;-67
2021/10/27 03:58:46;;;;;;;44.37;21.17;;;5.10;99.90;;;;;;2700923;28;20287;-67
2021/10/27 04:00:04;;;;;;;38.20;21.08;;;5.00;99.90;;;;;;2700762;28;20196;-66
2021/10/27 04:01:23;;;;;;;46.75;19.45;;;5.00;99.90;;;;;;2701260;28;20211;-67
2021/10/27 04:02:41;;;;;;;50.00;18.33;;;5.00;99.90;;;;;;2700647;28;20235;-67
2021/10/27 04:03:59;;;;;;;49.05;18.15;;;5.00;99.90;;;;;;2700367;28;20325;-67
2021/10/27 04:05:17;;;;;;;57.55;21.15;;;5.00;99.90;;;;;;2701042;28;20697;-67
2021/10/27 04:06:35;;;;;;;34.80;18.50;;;5.10;99.90;;;;;;2701153;28;20212;-67
2021/10/27 04:07:54;;;;;;;74.50;22.65;;;5.00;99.90;;;;;;2700602;28;20291;-67
2021/10/27 04:09:11;;;;;;;55.03;20.60;;;5.00;99.90;;;;;;2700414;28;20200;-67
2021/10/27 04:10:29;;;;;;;68.77;20.77;;;4.90;99.90;;;;;;2698966;28;20358;-67
2021/10/27 04:11:48;;;;;;;74.18;22.30;;;4.90;99.90;;;;;;2700264;28;20208;-67
2021/10/27 04:13:06;;;;;;;123.45;24.10;;;5.00;99.90;;;;;;2700046;28;20203;-66
2021/10/27 04:14:25;;;;;;;146.77;24.85;;;5.10;99.90;;;;;;2699092;28;20204;-67
2021/10/27 04:15:42;;;;;;;149.27;24.98;;;5.10;99.90;;;;;;2699789;28;20208;-67
2021/10/27 04:17:01;;;;;;;54.70;19.30;;;5.10;99.90;;;;;;2699770;28;20232;-66
2021/10/27 04:18:18;;;;;;;52.15;20.67;;;5.10;99.90;;;;;;2689567;28;20243;-66
2021/10/27 04:19:37;;;;;;;28.27;18.60;;;5.20;99.90;;;;;;2691044;28;20331;-67
2021/10/27 04:20:54;;;;;;;56.58;21.17;;;5.30;99.90;;;;;;2691596;28;20334;-67
2021/10/27 04:22:13;;;;;;;99.40;25.87;;;5.30;99.90;;;;;;2700183;28;20665;-66
2021/10/27 04:23:30;;;;;;;62.55;21.73;;;5.30;99.90;;;;;;2700706;28;20224;-67
2021/10/27 04:24:48;;;;;;;67.83;22.23;;;5.30;99.90;;;;;;2700692;28;20295;-67
2021/10/27 04:26:07;;;;;;;66.13;23.17;;;5.30;99.90;;;;;;2703315;28;20200;-66
2021/10/27 04:27:26;;;;;;;70.15;21.40;;;5.20;99.90;;;;;;2703350;28;20204;-67
2021/10/27 04:28:43;;;;;;;52.85;18.33;;;5.10;99.90;;;;;;2702977;28;20896;-67
2021/10/27 04:30:02;;;;;;;50.00;21.53;;;5.10;99.90;;;;;;2703188;28;20293;-66
2021/10/27 04:31:20;;;;;;;46.88;20.33;;;5.10;99.90;;;;;;2703245;28;20238;-67
2021/10/27 04:32:41;;;;;;;45.50;19.25;;;5.10;99.90;;;;;;2703353;28;20204;-67
2021/10/27 04:33:59;;;;;;;57.97;21.10;;;5.00;99.90;;;;;;2701905;28;20261;-67
2021/10/27 04:35:17;;;;;;;25.23;17.40;;;5.00;99.90;;;;;;2702960;28;20204;-66
2021/10/27 04:36:36;;;;;;;27.75;17.48;;;5.00;99.90;;;;;;2699326;28;20200;-67
2021/10/27 04:37:53;;;;;;;45.45;18.85;;;5.00;99.90;;;;;;2692126;28;20208;-67
2021/10/27 04:39:11;;;;;;;50.13;20.00;;;5.00;99.90;;;;;;2692097;28;20749;-67
2021/10/27 04:40:30;;;;;;;48.17;20.33;;;5.00;99.90;;;;;;2692323;28;20658;-68
2021/10/27 04:41:48;;;;;;;34.65;17.88;;;5.10;99.90;;;;;;2699477;28;20204;-67
2021/10/27 04:43:06;;;;;;;54.75;18.95;;;5.00;99.90;;;;;;2703193;28;21083;-67
2021/10/27 04:44:25;;;;;;;43.77;19.17;;;5.00;99.90;;;;;;2703033;28;20239;-66
2021/10/27 04:45:44;;;;;;;58.08;19.25;;;5.00;99.90;;;;;;2702538;28;20200;-67
2021/10/27 04:47:03;;;;;;;87.22;20.90;;;5.00;99.90;;;;;;2702743;28;20626;-69
2021/10/27 04:48:21;;;;;;;92.75;20.90;;;4.90;99.90;;;;;;2702644;28;20530;-67
2021/10/27 04:49:40;;;;;;;86.15;21.95;;;4.90;99.90;;;;;;2702857;28;20249;-68
2021/10/27 04:50:58;;;;;;;44.25;18.15;;;4.90;99.90;;;;;;2701354;28;20185;-68
2021/10/27 04:52:17;;;;;;;52.70;20.98;;;4.90;99.90;;;;;;2702978;28;20287;-68
2021/10/27 04:53:35;;;;;;;66.38;22.45;;;4.90;99.90;;;;;;2702828;28;20192;-68
2021/10/27 04:54:53;;;;;;;55.30;19.90;;;4.90;99.90;;;;;;2701922;28;20204;-68
2021/10/27 04:56:11;;;;;;;34.17;18.47;;;4.90;99.90;;;;;;2702082;28;20228;-67
2021/10/27 04:57:30;;;;;;;41.90;19.08;;;5.00;99.90;;;;;;2702214;28;20246;-67
2021/10/27 04:58:48;;;;;;;47.90;17.77;;;5.10;99.90;;;;;;2702385;28;20207;-67
2021/10/27 05:00:07;;;;;;;43.03;18.30;;;5.20;99.90;;;;;;2702773;28;20247;-67
2021/10/27 05:01:26;;;;;;;41.63;20.05;;;5.20;99.90;;;;;;2702661;28;20211;-67
2021/10/27 05:02:44;;;;;;;60.00;20.70;;;5.00;99.90;;;;;;2702777;28;20257;-67
2021/10/27 05:04:03;;;;;;;44.60;19.35;;;5.10;99.90;;;;;;2701875;28;20631;-67
2021/10/27 05:05:21;;;;;;;50.78;16.70;;;5.00;99.90;;;;;;2702336;28;20601;-67
2021/10/27 05:06:40;;;;;;;69.32;20.70;;;5.10;99.90;;;;;;2702465;28;20229;-68
2021/10/27 05:08:00;;;;;;;58.53;20.27;;;5.10;99.90;;;;;;2702821;28;20669;-67
2021/10/27 05:09:18;;;;;;;79.82;21.30;;;5.00;99.90;;;;;;2702227;28;20258;-66
2021/10/27 05:10:37;;;;;;;45.40;19.60;;;5.00;99.90;;;;;;2701088;28;20204;-67
2021/10/27 05:11:55;;;;;;;83.45;21.25;;;5.00;99.90;;;;;;2702309;28;20246;-67
2021/10/27 05:13:14;;;;;;;47.30;17.90;;;5.10;99.90;;;;;;2702354;28;20196;-67
2021/10/27 05:14:32;;;;;;;27.38;16.70;;;5.10;99.90;;;;;;2701366;28;20216;-67
2021/10/27 05:15:51;;;;;;;25.35;16.75;;;5.10;99.90;;;;;;2701635;28;20265;-68
2021/10/27 05:17:11;;;;;;;47.10;17.75;;;5.00;99.90;;;;;;2701729;28;20211;-68
2021/10/27 05:18:29;;;;;;;44.85;17.65;;;5.00;99.90;;;;;;2702374;28;20204;-68
2021/10/27 05:19:47;;;;;;;32.38;15.52;;;4.90;99.90;;;;;;2702619;28;20580;-67
2021/10/27 05:21:06;;;;;;;25.60;15.20;;;4.90;99.90;;;;;;2702607;28;20199;-67
2021/10/27 05:22:24;;;;;;;32.78;18.05;;;4.90;99.90;;;;;;2702644;28;20196;-66
2021/10/27 05:23:42;;;;;;;64.00;19.50;;;4.90;99.90;;;;;;2702274;28;21093;-66
2021/10/27 05:25:00;;;;;;;30.95;15.50;;;4.90;99.90;;;;;;2701832;28;21068;-66
2021/10/27 05:26:19;;;;;;;37.90;17.15;;;4.90;99.90;;;;;;2697994;28;20668;-66
2021/10/27 05:27:37;;;;;;;32.55;15.27;;;4.80;99.90;;;;;;2699478;28;20231;-66
2021/10/27 05:28:56;;;;;;;42.20;17.02;;;4.70;99.90;;;;;;2691753;28;20208;-66
2021/10/27 05:30:13;;;;;;;45.40;16.00;;;4.60;99.90;;;;;;2691715;28;20201;-66
2021/10/27 05:31:32;;;;;;;42.63;16.63;;;4.60;99.90;;;;;;2694990;28;20772;-66
2021/10/27 05:32:54;;;;;;;36.38;16.30;;;4.60;99.90;;;;;;2701039;28;20204;-66
2021/10/27 05:34:13;;;;;;;30.85;16.08;;;4.60;99.90;;;;;;2694580;28;20197;-66
2021/10/27 05:35:31;;;;;;;35.05;17.05;;;4.60;99.90;;;;;;2700582;28;20258;-66
2021/10/27 05:36:49;;;;;;;34.88;16.95;;;4.70;99.90;;;;;;2696091;28;20196;-67
2021/10/27 05:38:07;;;;;;;40.10;15.87;;;4.70;99.90;;;;;;2695813;28;20316;-66
2021/10/27 05:39:26;;;;;;;33.38;16.27;;;4.80;99.90;;;;;;2690921;28;20447;-66
2021/10/27 05:40:45;;;;;;;28.05;15.13;;;4.80;99.90;;;;;;2691726;28;20201;-66
2021/10/27 05:42:04;;;;;;;24.92;16.95;;;4.70;99.90;;;;;;2701278;28;20196;-66
2021/10/27 05:43:23;;;;;;;17.38;14.70;;;4.70;99.90;;;;;;2694706;28;20212;-66
2021/10/27 05:44:42;;;;;;;25.77;16.15;;;4.70;99.90;;;;;;2701402;28;20199;-66
2021/10/27 05:46:01;;;;;;;15.55;14.15;;;4.70;99.90;;;;;;2702167;28;20200;-66
2021/10/27 05:47:19;;;;;;;23.70;16.35;;;4.70;99.90;;;;;;2701437;28;20312;-66
2021/10/27 05:48:41;;;;;;;20.40;15.68;;;4.70;99.90;;;;;;2701919;28;20204;-66
2021/10/27 05:50:20;;;;;;;98.20;21.73;;;4.80;99.90;;;;;;2702355;28;20242;-66
2021/10/27 05:51:42;;;;;;;17.13;15.40;;;4.80;99.90;;;;;;2701186;28;20200;-66
2021/10/27 05:56:16;;;;;;;133.25;24.88;;;4.70;99.90;;;;;;2702333;28;20192;-67
2021/10/27 05:57:36;;;;;;;51.30;19.00;;;4.70;99.90;;;;;;2702272;28;20235;-67
2021/10/27 05:58:55;;;;;;;39.30;17.30;;;4.70;99.90;;;;;;2702465;28;20208;-66
2021/10/27 06:00:12;;;;;;;28.85;16.55;;;4.70;99.90;;;;;;2702178;28;20204;-66
2021/10/27 06:01:31;;;;;;;21.20;16.10;;;4.70;99.90;;;;;;2702137;28;20196;-66
2021/10/27 06:02:48;;;;;;;32.15;16.63;;;4.70;99.90;;;;;;2702049;28;20200;-67
2021/10/27 06:04:07;;;;;;;70.50;22.87;;;4.80;99.90;;;;;;2701610;28;20236;-67
2021/10/27 06:05:25;;;;;;;104.47;22.90;;;4.80;99.90;;;;;;2701569;28;20250;-66
2021/10/27 06:06:43;;;;;;;106.20;25.10;;;4.80;99.90;;;;;;2701340;28;20250;-66
2021/10/27 06:08:02;;;;;;;37.20;16.42;;;4.80;99.90;;;;;;2702318;28;20200;-66
2021/10/27 06:09:20;;;;;;;35.38;20.05;;;4.80;99.90;;;;;;2702077;28;20197;-66
2021/10/27 06:10:39;;;;;;;25.52;16.75;;;4.80;99.90;;;;;;2699357;28;20721;-66
2021/10/27 06:11:59;;;;;;;54.47;17.45;;;4.80;99.90;;;;;;2691273;28;20209;-66
2021/10/27 06:13:18;;;;;;;64.88;19.00;;;4.80;99.90;;;;;;2691490;28;20295;-66
2021/10/27 06:14:36;;;;;;;23.88;16.77;;;4.70;99.90;;;;;;2690681;28;20265;-66
2021/10/27 06:15:55;;;;;;;56.78;19.33;;;4.80;99.90;;;;;;2691116;28;20266;-66
2021/10/27 06:17:14;;;;;;;42.88;16.58;;;4.80;99.90;;;;;;2691532;28;20212;-66
2021/10/27 06:18:32;;;;;;;36.00;17.20;;;4.80;99.90;;;;;;2691178;28;20205;-66
2021/10/27 06:19:53;;;;;;;49.85;18.85;;;4.80;99.90;;;;;;2691142;28;20576;-66
2021/10/27 06:21:11;;;;;;;76.30;19.30;;;4.90;99.90;;;;;;2695033;28;20211;-66
2021/10/27 06:22:30;;;;;;;62.33;19.98;;;4.80;99.90;;;;;;2698285;28;20283;-66
2021/10/27 06:23:48;;;;;;;49.03;16.58;;;4.80;99.90;;;;;;2704799;28;20231;-66
2021/10/27 06:25:08;;;;;;;60.83;18.27;;;4.90;99.90;;;;;;2712005;28;20264;-66
2021/10/27 06:26:27;;;;;;;82.88;18.35;;;4.90;99.90;;;;;;2712841;28;20601;-66
2021/10/27 06:27:46;;;;;;;55.50;17.60;;;4.90;99.90;;;;;;2709861;28;20211;-66
2021/10/27 06:29:07;;;;;;;40.55;16.67;;;4.90;99.90;;;;;;2701883;28;20215;-66
2021/10/27 06:30:28;;;;;;;44.40;17.05;;;4.90;99.90;;;;;;2701974;28;20296;-66
2021/10/27 06:31:50;;;;;;;29.63;16.10;;;5.00;99.90;;;;;;2698060;28;20201;-66
2021/10/27 06:33:20;;;;;;;39.75;17.85;;;5.00;99.90;;;;;;2701579;28;20266;-66
2021/10/27 06:34:41;;;;;;;48.03;16.75;;;5.00;99.90;;;;;;2690982;28;20255;-66
2021/10/27 06:36:04;;;;;;;48.10;17.50;;;4.90;99.90;;;;;;2691093;28;21102;-66
2021/10/27 06:46:54;;;;;;;43.72;16.02;;;5.10;99.90;;;;;;2701809;28;20242;-66
2021/10/27 06:48:13;;;;;;;20.48;15.50;;;5.00;99.90;;;;;;2700648;28;20204;-66
2021/10/27 06:49:31;;;;;;;22.65;16.15;;;5.10;99.90;;;;;;2701744;28;20209;-66
2021/10/27 06:50:50;;;;;;;25.77;16.20;;;5.10;99.90;;;;;;2701333;28;20216;-66
2021/10/27 06:52:08;;;;;;;29.00;16.45;;;5.10;99.90;;;;;;2701475;28;20201;-66
2021/10/27 06:53:28;;;;;;;29.73;16.55;;;5.10;99.90;;;;;;2701633;28;20208;-66
2021/10/27 06:54:51;;;;;;;16.42;14.60;;;5.20;99.90;;;;;;2700624;28;20204;-66